This is the latest recevied weather packets stored in our database for station/object WA1TYB-13. If no packets are shown the sender has not sent any weather packets the latest 10 day(s).
| Time | Temp. | Humidity | Pressure | Rain* | Wind** | Luminosity | Snow |
|---|---|---|---|---|---|---|---|
| 1777956573 | 6.67° C | 44% | 1018.2 hPa | 0 mm | - | 0 W/m² | - |
| 1777956271 | 6.67° C | 46% | 1018.5 hPa | 0 mm | - | 0 W/m² | - |
| 1777955967 | 6.67° C | 45% | 1018.1 hPa | 0 mm | - | 0 W/m² | - |
| 1777955663 | 7.22° C | 45% | 1018.1 hPa | 0 mm | - | 0 W/m² | - |
| 1777955360 | 7.78° C | 42% | 1018.2 hPa | 0 mm | - | 0 W/m² | - |
| 1777955056 | 7.78° C | 42% | 1018.2 hPa | 0 mm | - | 0 W/m² | - |
| 1777954754 | 7.78° C | 42% | 1018.1 hPa | 0 mm | - | 0 W/m² | - |
| 1777954451 | 7.22° C | 44% | 1018.2 hPa | 0 mm | - | 0 W/m² | - |
| 1777954148 | 7.22° C | 46% | 1018.2 hPa | 0 mm | - | 0 W/m² | - |
| 1777953845 | 7.78° C | 45% | 1018.1 hPa | 0 mm | - | 0 W/m² | - |
| 1777953542 | 7.78° C | 43% | 1018 hPa | 0 mm | - | 0 W/m² | - |
| 1777953238 | 7.78° C | 44% | 1017.9 hPa | 0 mm | - | 0 W/m² | - |
| 1777952935 | 7.78° C | 44% | 1017.9 hPa | 0 mm | - | 0 W/m² | - |
| 1777952631 | 7.78° C | 45% | 1018.1 hPa | 0 mm | - | 0 W/m² | - |
| 1777952329 | 7.78° C | 43% | 1017.9 hPa | 0 mm | - | 0 W/m² | - |
| 1777952025 | 8.33° C | 42% | 1017.9 hPa | 0 mm | - | 0 W/m² | - |
| 1777951724 | 7.78° C | 43% | 1017.8 hPa | 0 mm | - | 0 W/m² | - |
| 1777951420 | 8.33° C | 42% | 1017.6 hPa | 0 mm | - | 0 W/m² | - |
| 1777951117 | 8.33° C | 41% | 1017.8 hPa | 0 mm | - | 0 W/m² | - |
| 1777950813 | 8.33° C | 40% | 1017.7 hPa | 0 mm | - | 0 W/m² | - |
| 1777950511 | 8.89° C | 39% | 1017.6 hPa | 0 mm | - | 0 W/m² | - |
| 1777950207 | 8.89° C | 40% | 1017.5 hPa | 0 mm | - | 0 W/m² | - |
| 1777949902 | 8.89° C | 40% | 1017.6 hPa | 0 mm | - | 0 W/m² | - |
| 1777949600 | 8.89° C | 40% | 1017.5 hPa | 0 mm | - | 0 W/m² | - |
| 1777949299 | 9.44° C | 38% | 1017.4 hPa | 0 mm | - | 0 W/m² | - |
* Rain latest hour (hover to see other rain measurements)
** Current wind speed in m/s (hover to see current wind gust speed)